This is the latest recevied weather packets stored in our database for station/object KE5YIM-13. If no packets are shown the sender has not sent any weather packets the latest 1 day(s).
| Time | Temp. | Humidity | Pressure | Rain* | Wind** | Luminosity | Snow |
|---|---|---|---|---|---|---|---|
| 1778025510 | 17.78° C | 67% | 1010.8 hPa | 0 mm | 1.79 m/s, 218° | 1 W/m² | - |
| 1778025207 | 17.78° C | 67% | 1010.5 hPa | 0 mm | 2.24 m/s, 263° | 3 W/m² | - |
| 1778024904 | 18.33° C | 67% | 1010.5 hPa | 0 mm | 0.89 m/s, 132° | 4 W/m² | - |
| 1778024602 | 17.78° C | 67% | 1010.5 hPa | 0 mm | 1.79 m/s, 238° | 7 W/m² | - |
| 1778024299 | 17.78° C | 67% | 1010.5 hPa | 0 mm | 1.79 m/s, 279° | 10 W/m² | - |
| 1778023997 | 18.33° C | 67% | 1010.4 hPa | 0 mm | 2.24 m/s, 280° | 13 W/m² | - |
| 1778023694 | 18.33° C | 66% | 1010.5 hPa | 0 mm | 2.24 m/s, 251° | 17 W/m² | - |
| 1778023391 | 18.33° C | 66% | 1010.5 hPa | 0 mm | 1.34 m/s, 215° | 21 W/m² | - |
| 1778023088 | 18.33° C | 66% | 1010.3 hPa | 0 mm | 1.34 m/s, 231° | 25 W/m² | - |
| 1778022786 | 18.89° C | 66% | 1010.1 hPa | 0 mm | 2.24 m/s, 247° | 31 W/m² | - |
| 1778022484 | 18.89° C | 66% | 1010.1 hPa | 0 mm | 1.34 m/s, 170° | 35 W/m² | - |
| 1778022180 | 18.89° C | 65% | 1010.1 hPa | 0 mm | 3.13 m/s, 256° | 38 W/m² | - |
| 1778021877 | 19.44° C | 65% | 1010.1 hPa | 0 mm | 0.89 m/s, 128° | 44 W/m² | - |
| 1778021574 | 19.44° C | 65% | 1009.9 hPa | 0 mm | 0.45 m/s, 121° | 48 W/m² | - |
| 1778021269 | 19.44° C | 64% | 1009.8 hPa | 0 mm | 4.02 m/s, 235° | 51 W/m² | - |
| 1778020967 | 20° C | 64% | 1010 hPa | 0 mm | 0.89 m/s, 141° | 61 W/m² | - |
| 1778020665 | 20° C | 63% | 1010.1 hPa | 0 mm | 1.79 m/s, 176° | 72 W/m² | - |
| 1778020361 | 20° C | 63% | 1010.2 hPa | 0 mm | 1.79 m/s, 185° | 73 W/m² | - |
| 1778020057 | 20° C | 63% | 1010.1 hPa | 0 mm | 1.34 m/s, 275° | 112 W/m² | - |
| 1778019753 | 20° C | 63% | 1010.2 hPa | 0 mm | 1.34 m/s, 248° | 130 W/m² | - |
| 1778019451 | 20° C | 64% | 1010 hPa | 0 mm | 0.89 m/s, 180° | 140 W/m² | - |
| 1778019147 | 20° C | 63% | 1010.1 hPa | 0 mm | 3.13 m/s, 279° | 149 W/m² | - |
| 1778018844 | 20.56° C | 62% | 1010.1 hPa | 0 mm | 2.24 m/s, 209° | 173 W/m² | - |
| 1778018542 | 20.56° C | 62% | 1009.9 hPa | 0 mm | 1.79 m/s, 217° | 131 W/m² | - |
| 1778018240 | 20.56° C | 63% | 1010 hPa | 0 mm | 1.34 m/s, 157° | 195 W/m² | - |
* Rain latest hour (hover to see other rain measurements)
** Current wind speed in m/s (hover to see current wind gust speed)